LFQA 301030Z AUTO 08010KT 040V110 CAVOK 22/05 Q1021

ElémentsDécodage
LFQA Station météo située sur l'aérodrome de REIMS Prunay
301030Z émis le 30 du mois à 10h30 UTC
AUTO Bulletin édité par un automate
08010KT vent du 080°, 10 noeuds
040V110 vent de direction variable entre 040° et 110°
CAVOK Ceiling And Visibility OK
- Visibilité de 10 Km ou plus
- Pas de nuage au-dessous de 1500m ou au-dessous de l'altitude minimale du secteur la plus élevée (si>1500m) et absence de CB
- pas de temps présent significatif
22/05 température 22°C, point de rosée 05°C
 soit une humidité relative de 33%
Q1021 la pression au niveau de la mer (QNH) est de 1021 hPa